Airfield :
LOGIN :

Register | Disclaimer

   EN    FR    IT 

 










Legend :    VFR   Marginal VFR   IFR   Intensive IFR   Very Intensive IFR
Visi :
Ceiling :
>= 8 km
>= 3000ft
5 to 8 km
1000 to 3000 ft
1500m to 5 km
500 to 1000 ft
800 to 1500m
200 to 500 ft
< 800m
< 200 ft
Symbols :   Thunderstorms  Fog  Heavy snow  Heavy precipitations  Wind > 20 kt
SIGMETs :     Misc.  Thunderstorms  Icing  Turbulence  Mountain Waves  Volcanic Ashes






- Airport Elevation : 65 ft
- IATA code : ADA


LTAF - Adana

CURRENT METAR :
  • 071620Z 21009KT 9999 SCT030 29/23 Q1002 NOSIG RMK RWY23 23009KT 3CU030

EXPIRED METARs :
  • 071550Z 20010KT 9999 SCT030 30/23 Q1002 NOSIG RMK RWY23 22010KT 3CU030
  • 071520Z 21010KT 9999 SCT030 31/23 Q1001 NOSIG RMK RWY23 23012KT 3CU030
  • 071450Z 21011KT 9999 SCT030 31/23 Q1001 NOSIG RMK RWY23 21011KT 3CU030
  • 071420Z 20010KT 9999 SCT030 32/23 Q1001 NOSIG RMK RWY23 23011KT 3CU030
  • 071350Z 21011KT 9999 SCT030 32/23 Q1001 NOSIG RMK RWY23 23012KT 200V260 3CU030

TAF TAF LTAF
Valid from the 07 at 12:00 until the 08 at 12:00 UTC


071040Z 0712/0812 21012KT 9999 SCT030
BECMG 0715/0717 VRB02KT
BECMG 0809/0811 21012KT



MET'MAP, your aeronautical weather chart ! - Copyright ORBIFLY December 2007 - Disclaimer

ORBIFLY MET'MAP TEAM :

Programming & Development : Alexandra Zaïnal
Original concept : Baudouin d'Aumeries
Technical & hardware support : Manuel Goepfert
Assistance : Marc-Olivier Méhu




SOURCES & CREDITS :

   NOAA